ジャカルタ の空港の天気 - METARとTAF

スカルノハッタ国際空港 ( WIII / CGK ) - インドネシア バンテン州、Cengkareng ( ジャカルタ近郊)
飛行場実況気象(Metar)
観測時間07/18 12:00 WIB (07/18 05:00 UTC)
風向・風速北東 3m/s
視程5000m
天気現象煙霧
少しの雲 雲底高度 640m
気温32℃
湿度52%
気圧1009hPa
METARWIII 180500Z 05006KT 010V090 5000 HZ FEW021 32/21 Q1009 NOSIG
過去の天気等 Google飛行場航空写真 Wunderground天気予報

過去48時間のMETAR

飛行場予報(TAF)
発表時間: 7/18 06:00 WIB (7/17 23:00 UTC)
予報対象時間: 18日7時 WIB ~ 19日13時 WIB
風向・風速不定 2m/s
視程5000m
天気現象煙霧
少しの雲 雲底高度 610m
18日10時 WIB ~ 18日12時 WIB に徐々に
風向・風速北東 3m/s
TAF WIII 172300Z 1800/1906 VRB03KT 5000 HZ FEW020
BECMG 1803/1805 05006KT